createdAt,value
2018-09-19T00:00:44.740Z,76.09
2018-09-19T00:03:17.675Z,76.12
2018-09-19T00:05:50.276Z,76.08
2018-09-19T00:08:22.932Z,76.10
2018-09-19T00:10:58.325Z,76.97
2018-09-19T00:13:31.481Z,76.82
2018-09-19T00:16:04.137Z,76.89
2018-09-19T00:18:36.989Z,76.97
2018-09-19T00:21:09.428Z,77.25
2018-09-19T00:23:42.003Z,77.41
2018-09-19T00:26:15.297Z,77.30
2018-09-19T00:28:47.799Z,77.25
2018-09-19T00:31:22.029Z,78.25
2018-09-19T00:33:56.427Z,78.10
2018-09-19T00:36:29.188Z,78.29
2018-09-19T00:39:01.788Z,78.32
2018-09-19T00:41:35.509Z,78.39
2018-09-19T00:44:08.979Z,78.54
2018-09-19T00:46:42.192Z,78.66
2018-09-19T00:49:15.616Z,78.83
2018-09-19T00:51:48.198Z,79.03
2018-09-19T00:54:20.949Z,79.21
2018-09-19T00:56:54.753Z,80.56
2018-09-19T00:59:27.334Z,80.65
2018-09-19T01:01:59.869Z,80.85
2018-09-19T01:04:33.107Z,82.04
2018-09-19T01:07:06.008Z,81.39
2018-09-19T01:09:39.730Z,81.29
2018-09-19T01:12:15.385Z,81.19
2018-09-19T01:14:47.843Z,81.45
2018-09-19T01:17:20.520Z,81.96
2018-09-19T01:19:53.470Z,81.97
2018-09-19T01:22:26.074Z,81.96
2018-09-19T01:24:58.572Z,82.06
2018-09-19T01:27:31.424Z,82.29
2018-09-19T01:30:06.233Z,82.31
2018-09-19T01:32:38.832Z,82.39
2018-09-19T01:35:12.021Z,82.78
2018-09-19T01:37:44.599Z,83.13
2018-09-19T01:40:17.184Z,84.00
2018-09-19T01:42:50.161Z,83.91
2018-09-19T01:45:22.714Z,84.01
2018-09-19T01:47:55.245Z,84.21
2018-09-19T01:50:28.121Z,84.19
2018-09-19T01:53:00.619Z,84.27
2018-09-19T01:55:33.264Z,84.52
2018-09-19T01:58:07.486Z,84.88
2018-09-19T02:00:40.074Z,85.12
2018-09-19T02:03:12.552Z,84.96
2018-09-19T02:05:46.536Z,85.11
2018-09-19T02:08:19.772Z,85.41
2018-09-19T02:10:52.484Z,86.22
2018-09-19T02:13:25.583Z,86.66
2018-09-19T02:15:58.321Z,86.50
2018-09-19T02:18:30.940Z,86.60
2018-09-19T02:21:06.231Z,86.73
2018-09-19T02:23:39.620Z,87.01
2018-09-19T02:26:12.416Z,87.48
2018-09-19T02:28:45.796Z,87.41
2018-09-19T02:31:18.361Z,87.75
2018-09-19T02:33:51.992Z,88.26
2018-09-19T02:36:26.055Z,88.37
2018-09-19T02:38:58.661Z,88.55
2018-09-19T02:41:31.571Z,88.49
2018-09-19T02:44:06.352Z,88.64
2018-09-19T02:46:38.959Z,89.10
2018-09-19T02:49:11.464Z,89.04
2018-09-19T02:51:44.305Z,89.32
2018-09-19T02:54:16.812Z,89.43
2018-09-19T02:56:53.460Z,89.50
2018-09-19T02:59:28.466Z,89.59
2018-09-19T03:02:01.181Z,89.79
2018-09-19T03:04:34.130Z,89.99
2018-09-19T03:07:06.568Z,89.95
2018-09-19T03:09:39.040Z,89.84
2018-09-19T03:12:11.888Z,89.92
2018-09-19T03:14:44.448Z,90.06
2018-09-19T03:17:17.158Z,90.40
2018-09-19T03:19:50.811Z,90.38
2018-09-19T03:22:31.081Z,90.44
2018-09-19T03:25:04.563Z,90.90
2018-09-19T03:27:41.059Z,91.26
2018-09-19T03:30:16.419Z,91.24
2018-09-19T03:32:49.938Z,91.52
2018-09-19T03:35:23.352Z,91.58
2018-09-19T03:37:56.005Z,91.67
2018-09-19T03:40:28.547Z,91.64
2018-09-19T03:43:01.604Z,91.40
2018-09-19T03:45:34.142Z,91.32
2018-09-19T03:48:07.577Z,91.25
2018-09-19T03:50:40.508Z,91.27
2018-09-19T03:53:13.096Z,91.47
2018-09-19T03:55:45.654Z,91.46
2018-09-19T03:58:18.911Z,91.33
2018-09-19T04:00:52.540Z,91.17
2018-09-19T04:03:25.266Z,91.23
2018-09-19T04:05:58.055Z,91.29
2018-09-19T04:08:30.870Z,91.31
2018-09-19T04:11:03.344Z,91.09
2018-09-19T04:13:36.186Z,91.10
2018-09-19T04:16:08.709Z,91.20
2018-09-19T04:18:41.263Z,91.25
2018-09-19T04:21:14.115Z,91.14
2018-09-19T04:23:46.917Z,91.22
2018-09-19T04:26:19.485Z,91.19
2018-09-19T04:28:54.512Z,91.04
2018-09-19T04:31:27.081Z,91.12
2018-09-19T04:34:01.126Z,91.33
2018-09-19T04:36:34.649Z,91.49
2018-09-19T04:39:11.128Z,91.56
2018-09-19T04:41:43.797Z,91.45
2018-09-19T04:44:17.332Z,91.40
2018-09-19T04:46:49.980Z,91.42
2018-09-19T04:49:22.588Z,91.26
2018-09-19T04:51:55.518Z,91.58
2018-09-19T04:54:28.937Z,91.57
2018-09-19T04:57:01.409Z,91.70
2018-09-19T04:59:34.507Z,91.96
2018-09-19T05:02:06.974Z,92.30
2018-09-19T05:04:39.675Z,92.33
2018-09-19T05:07:13.418Z,92.38
2018-09-19T05:09:46.047Z,92.30
2018-09-19T05:12:18.701Z,92.37
2018-09-19T05:14:52.835Z,92.50
2018-09-19T05:17:25.274Z,92.61
2018-09-19T05:19:58.062Z,92.62
2018-09-19T05:22:32.495Z,92.68
2018-09-19T05:25:06.368Z,92.70
2018-09-19T05:27:38.852Z,92.72
2018-09-19T05:30:14.545Z,92.70
2018-09-19T05:32:47.066Z,92.52
2018-09-19T05:35:19.732Z,92.66
2018-09-19T05:37:53.711Z,92.80
2018-09-19T05:40:26.863Z,92.65
2018-09-19T05:43:00.341Z,92.44
2018-09-19T05:45:34.542Z,92.06
2018-09-19T05:48:07.272Z,91.80
2018-09-19T05:50:39.841Z,91.68
2018-09-19T05:53:15.293Z,91.19
2018-09-19T05:55:47.882Z,90.55
2018-09-19T05:58:20.439Z,89.54
2018-09-19T06:00:54.063Z,89.09
2018-09-19T06:03:26.684Z,88.73
2018-09-19T06:05:59.758Z,88.09
2018-09-19T06:08:33.312Z,87.27
2018-09-19T06:11:11.006Z,86.61
2018-09-19T06:13:44.044Z,86.25
2018-09-19T06:16:16.449Z,85.73
2018-09-19T06:18:49.265Z,85.15
2018-09-19T06:21:22.638Z,84.19
2018-09-19T06:23:56.307Z,83.41
2018-09-19T06:26:33.334Z,82.38
2018-09-19T06:29:07.100Z,81.29
2018-09-19T06:31:39.686Z,79.74
2018-09-19T06:34:12.753Z,79.16
2018-09-19T06:36:45.552Z,78.23
2018-09-19T06:39:18.024Z,77.60
2018-09-19T06:41:50.825Z,76.73
2018-09-19T06:44:24.582Z,75.78
2018-09-19T06:46:59.156Z,75.08
2018-09-19T06:49:32.301Z,75.03
2018-09-19T06:52:04.870Z,74.82
2018-09-19T06:54:37.507Z,74.13
2018-09-19T06:57:10.568Z,73.39
2018-09-19T06:59:43.247Z,72.86
2018-09-19T07:02:15.756Z,72.44
2018-09-19T07:04:49.668Z,71.91
2018-09-19T07:07:23.154Z,71.30
2018-09-19T07:09:55.797Z,70.97
2018-09-19T07:12:31.001Z,70.94
2018-09-19T07:15:05.932Z,70.36
2018-09-19T07:17:38.404Z,69.91
2018-09-19T07:20:11.349Z,69.44
2018-09-19T07:22:45.648Z,68.90
2018-09-19T07:25:18.870Z,68.33
2018-09-19T07:27:52.679Z,68.26
2018-09-19T07:30:26.175Z,68.06
2018-09-19T07:32:58.563Z,68.01
2018-09-19T07:35:33.696Z,67.57
2018-09-19T07:38:06.854Z,67.20
2018-09-19T07:40:41.092Z,67.08
2018-09-19T07:43:16.060Z,66.96
2018-09-19T07:45:50.539Z,66.58
2018-09-19T07:48:23.783Z,66.50
2018-09-19T07:50:56.215Z,66.52
2018-09-19T07:53:34.428Z,66.63
2018-09-19T07:56:06.956Z,66.39
2018-09-19T07:58:44.024Z,66.29
2018-09-19T08:01:17.128Z,65.95
2018-09-19T08:03:49.910Z,66.02
2018-09-19T08:06:23.830Z,66.14
2018-09-19T08:08:58.282Z,66.00
2018-09-19T08:11:31.362Z,65.64
2018-09-19T08:14:05.217Z,65.44
2018-09-19T08:16:41.631Z,64.32
2018-09-19T08:19:16.933Z,61.98
2018-09-19T08:21:52.192Z,59.10
2018-09-19T08:24:25.302Z,57.39
2018-09-19T08:26:57.887Z,56.86
2018-09-19T08:29:31.803Z,56.18
2018-09-19T08:32:08.082Z,56.48
2018-09-19T08:34:41.709Z,55.65
2018-09-19T08:37:15.250Z,55.09
2018-09-19T08:39:55.444Z,56.19
2018-09-19T08:42:28.608Z,56.91
2018-09-19T08:45:03.619Z,57.39
2018-09-19T08:47:37.044Z,57.24
2018-09-19T08:50:09.583Z,57.43
2018-09-19T08:52:42.146Z,57.26
2018-09-19T08:55:15.344Z,56.72
2018-09-19T08:57:47.938Z,54.95
2018-09-19T09:00:24.138Z,53.59
2018-09-19T09:02:57.547Z,51.84
2018-09-19T09:05:31.696Z,52.08
2018-09-19T09:08:07.212Z,52.82
2018-09-19T09:10:56.872Z,53.37
2018-09-19T09:13:29.505Z,53.96
2018-09-19T09:18:43.888Z,53.55
2018-09-19T09:21:18.911Z,51.14
2018-09-19T09:23:52.163Z,50.77
2018-09-19T09:26:28.294Z,50.14
2018-09-19T09:29:17.731Z,49.22
2018-09-19T09:31:51.442Z,48.44
2018-09-19T09:34:24.593Z,47.97
2018-09-19T09:36:58.515Z,47.92
2018-09-19T09:39:31.990Z,47.86
2018-09-19T09:42:05.794Z,47.96
2018-09-19T09:44:38.455Z,47.80
2018-09-19T09:47:13.752Z,47.05
2018-09-19T09:49:48.184Z,47.00
2018-09-19T09:52:23.399Z,47.10
2018-09-19T09:54:56.751Z,46.89
2018-09-19T09:57:29.697Z,45.89
2018-09-19T10:00:08.172Z,46.17
2018-09-19T10:02:43.427Z,45.64
2018-09-19T10:05:17.317Z,45.80
2018-09-19T10:07:51.744Z,46.07
2018-09-19T10:10:30.378Z,46.10
2018-09-19T10:13:04.839Z,44.80
2018-09-19T10:15:40.889Z,45.15
2018-09-19T10:18:21.690Z,45.54
2018-09-19T10:20:54.254Z,45.29
2018-09-19T10:23:28.276Z,44.76
2018-09-19T10:26:03.605Z,45.27
2018-09-19T10:28:38.322Z,45.44
2018-09-19T10:31:11.966Z,44.61
2018-09-19T10:33:44.770Z,44.44
2018-09-19T10:36:18.884Z,43.94
2018-09-19T10:38:54.610Z,44.43
2018-09-19T10:41:29.825Z,44.26
2018-09-19T10:44:10.611Z,45.28
2018-09-19T10:46:49.905Z,45.63
2018-09-19T10:49:24.958Z,44.93
2018-09-19T10:52:00.429Z,44.41
2018-09-19T10:54:35.650Z,45.35
2018-09-19T10:57:12.848Z,46.06
2018-09-19T10:59:46.727Z,46.73
2018-09-19T11:02:19.328Z,46.63
2018-09-19T11:04:53.913Z,46.96
2018-09-19T11:07:30.212Z,46.36
2018-09-19T11:10:06.633Z,46.27
2018-09-19T11:12:39.227Z,46.51
2018-09-19T11:15:18.648Z,45.82
2018-09-19T11:17:58.321Z,45.48
2018-09-19T11:20:31.732Z,44.34
2018-09-19T11:23:05.828Z,43.50
2018-09-19T11:25:44.957Z,43.56
2018-09-19T11:28:17.685Z,42.40
2018-09-19T11:30:50.744Z,41.90
2018-09-19T11:33:35.334Z,41.88
2018-09-19T11:36:09.537Z,41.69
2018-09-19T11:38:42.616Z,41.94
2018-09-19T11:41:17.713Z,42.45
2018-09-19T11:43:51.442Z,43.06
2018-09-19T11:46:26.276Z,43.33
2018-09-19T11:49:00.078Z,43.77
2018-09-19T11:51:33.286Z,43.51
2018-09-19T11:54:07.434Z,43.78
2018-09-19T11:56:42.668Z,43.67
2018-09-19T11:59:18.714Z,43.72
2018-09-19T12:01:57.192Z,43.88
2018-09-19T12:04:30.715Z,43.10
2018-09-19T12:07:04.444Z,42.62
2018-09-19T12:09:37.577Z,42.51
2018-09-19T12:12:10.687Z,41.97
2018-09-19T12:14:44.722Z,41.90
2018-09-19T12:17:20.398Z,41.75
2018-09-19T12:19:54.924Z,41.81
2018-09-19T12:22:30.303Z,41.94
2018-09-19T12:25:04.451Z,42.09
2018-09-19T12:27:39.996Z,42.88
2018-09-19T12:30:17.581Z,43.28
2018-09-19T12:32:50.680Z,43.30
2018-09-19T12:35:24.787Z,43.65
2018-09-19T12:37:58.645Z,43.80
2018-09-19T12:40:31.256Z,43.73
2018-09-19T12:43:05.176Z,43.31
2018-09-19T12:45:39.144Z,42.54
2018-09-19T12:48:13.143Z,41.62
2018-09-19T12:50:48.832Z,41.31
2018-09-19T12:53:24.808Z,40.79
2018-09-19T12:55:57.840Z,40.42
2018-09-19T12:58:32.032Z,39.60
2018-09-19T13:01:06.317Z,39.67
2018-09-19T13:03:46.877Z,38.07
2018-09-19T13:06:21.766Z,38.14
2018-09-19T13:08:57.011Z,38.14
2018-09-19T13:11:30.649Z,38.07
2018-09-19T13:14:04.279Z,38.01
2018-09-19T13:16:39.525Z,37.90
2018-09-19T13:19:12.764Z,38.03
2018-09-19T13:21:47.661Z,37.96
2018-09-19T13:24:20.364Z,37.90
2018-09-19T13:26:56.538Z,37.53
2018-09-19T13:29:29.952Z,36.83
2018-09-19T13:32:02.392Z,36.60
2018-09-19T13:34:37.040Z,37.09
2018-09-19T13:37:10.275Z,37.33
2018-09-19T13:39:44.384Z,37.28
2018-09-19T13:42:17.053Z,36.83
2018-09-19T13:44:51.444Z,36.96
2018-09-19T13:47:24.605Z,36.40
2018-09-19T13:50:29.904Z,37.05
2018-09-19T13:53:05.654Z,37.55
2018-09-19T13:55:38.623Z,37.36
2018-09-19T13:58:12.356Z,36.85
2018-09-19T14:00:47.752Z,36.09
2018-09-19T14:03:24.086Z,36.58
2018-09-19T14:06:00.278Z,37.81
2018-09-19T14:08:42.837Z,38.03
2018-09-19T14:11:24.971Z,37.47
2018-09-19T14:13:58.220Z,38.02
2018-09-19T14:16:32.053Z,37.56
2018-09-19T14:19:07.406Z,37.35
2018-09-19T14:21:42.672Z,37.21
2018-09-19T14:24:16.431Z,37.48
2018-09-19T14:26:49.544Z,37.35
2018-09-19T14:29:25.733Z,36.89
2018-09-19T14:32:00.983Z,36.79
2018-09-19T14:34:35.945Z,37.19
2018-09-19T14:37:10.722Z,37.21
2018-09-19T14:39:59.957Z,37.46
2018-09-19T14:42:46.828Z,36.96
2018-09-19T14:45:21.732Z,36.56
2018-09-19T14:47:58.904Z,37.49
2018-09-19T14:50:34.824Z,37.73
2018-09-19T14:53:11.677Z,38.00
2018-09-19T14:55:46.142Z,37.47
2018-09-19T14:58:19.892Z,36.74
2018-09-19T15:00:52.445Z,36.01
2018-09-19T15:03:25.045Z,36.04
2018-09-19T15:06:01.484Z,35.83
2018-09-19T15:08:38.705Z,36.00
2018-09-19T15:11:18.297Z,35.65
2018-09-19T15:13:52.337Z,35.67
2018-09-19T15:16:27.315Z,35.55
2018-09-19T15:19:00.697Z,35.82
2018-09-19T15:21:33.757Z,35.65
2018-09-19T15:24:06.376Z,34.83
2018-09-19T15:26:40.079Z,35.20
2018-09-19T15:29:16.800Z,35.07
2018-09-19T15:31:51.259Z,34.96
2018-09-19T15:34:27.985Z,35.15
2018-09-19T15:37:03.064Z,35.74
2018-09-19T15:39:38.220Z,35.93
2018-09-19T15:42:12.475Z,35.52
2018-09-19T15:44:49.550Z,36.10
2018-09-19T15:47:25.415Z,36.29
2018-09-19T15:50:04.945Z,36.35
2018-09-19T15:52:38.290Z,35.88
2018-09-19T15:55:12.134Z,36.31
2018-09-19T15:57:46.927Z,36.71
2018-09-19T16:00:20.814Z,36.95
2018-09-19T16:02:54.464Z,36.88
2018-09-19T16:05:27.374Z,36.99
2018-09-19T16:08:01.724Z,37.13
2018-09-19T16:10:35.527Z,36.87
2018-09-19T16:13:08.973Z,36.88
2018-09-19T16:15:46.074Z,36.41
2018-09-19T16:18:26.290Z,36.40
2018-09-19T16:21:00.561Z,36.40
2018-09-19T16:23:34.712Z,36.54
2018-09-19T16:26:08.760Z,36.89
2018-09-19T16:28:44.808Z,37.20
2018-09-19T16:31:18.106Z,37.42
2018-09-19T16:33:51.953Z,37.59
2018-09-19T16:36:24.980Z,37.86
2018-09-19T16:38:59.047Z,38.49
2018-09-19T16:41:32.281Z,39.16
2018-09-19T16:44:07.482Z,39.64
2018-09-19T16:46:42.097Z,39.94
2018-09-19T16:49:16.056Z,39.85
2018-09-19T16:51:50.760Z,39.44
2018-09-19T16:54:24.620Z,39.63
2018-09-19T16:57:00.552Z,39.38
2018-09-19T16:59:35.249Z,39.31
2018-09-19T17:02:09.248Z,39.38
2018-09-19T17:04:44.774Z,39.86
2018-09-19T17:07:23.841Z,40.36
2018-09-19T17:10:03.720Z,40.72
2018-09-19T17:12:40.030Z,41.37
2018-09-19T17:15:18.656Z,41.80
2018-09-19T17:17:54.601Z,42.04
2018-09-19T17:20:33.389Z,42.35
2018-09-19T17:23:07.624Z,42.66
2018-09-19T17:25:41.336Z,43.01
2018-09-19T17:28:16.568Z,43.28
2018-09-19T17:30:49.504Z,43.59
2018-09-19T17:33:22.841Z,43.99
2018-09-19T17:35:55.459Z,44.28
2018-09-19T17:38:31.758Z,44.81
2018-09-19T17:41:05.012Z,45.20
2018-09-19T17:43:39.516Z,45.67
2018-09-19T17:46:12.396Z,46.00
2018-09-19T17:48:45.352Z,46.22
2018-09-19T17:51:21.866Z,46.45
2018-09-19T17:53:59.222Z,46.69
2018-09-19T17:56:34.807Z,46.72
2018-09-19T17:59:10.147Z,46.88
2018-09-19T18:01:46.001Z,47.07
2018-09-19T18:04:24.489Z,47.22
2018-09-19T18:06:57.425Z,47.38
2018-09-19T18:09:30.077Z,47.66
2018-09-19T18:12:05.239Z,47.97
2018-09-19T18:14:40.783Z,48.42
2018-09-19T18:17:14.002Z,48.63
2018-09-19T18:19:49.618Z,49.09
2018-09-19T18:22:22.187Z,49.14
2018-09-19T18:25:00.170Z,49.58
2018-09-19T18:27:34.439Z,50.31
2018-09-19T18:30:08.524Z,50.57
2018-09-19T18:32:44.757Z,50.65
2018-09-19T18:35:19.525Z,50.90
2018-09-19T18:37:54.441Z,51.09
2018-09-19T18:40:28.602Z,51.51
2018-09-19T18:43:04.081Z,52.04
2018-09-19T18:45:37.757Z,52.15
2018-09-19T18:48:17.240Z,52.02
2018-09-19T18:50:51.364Z,52.39
2018-09-19T18:53:27.292Z,52.67
2018-09-19T18:56:02.979Z,52.89
2018-09-19T18:58:39.897Z,53.18
2018-09-19T19:01:15.908Z,53.50
2018-09-19T19:03:49.074Z,53.61
2018-09-19T19:06:23.198Z,53.19
2018-09-19T19:08:56.439Z,53.20
2018-09-19T19:11:32.233Z,53.27
2018-09-19T19:14:07.381Z,53.49
2018-09-19T19:16:42.336Z,53.63
2018-09-19T19:19:16.824Z,53.83
2018-09-19T19:21:56.179Z,53.90
2018-09-19T19:24:32.686Z,53.85
2018-09-19T19:27:07.242Z,53.90
2018-09-19T19:29:41.652Z,54.05
2018-09-19T19:32:15.546Z,54.07
2018-09-19T19:34:48.753Z,54.04
2018-09-19T19:37:21.445Z,54.23
2018-09-19T19:39:55.921Z,54.49
2018-09-19T19:42:28.524Z,54.78
2018-09-19T19:45:03.382Z,55.12
2018-09-19T19:47:36.429Z,55.57
2018-09-19T19:50:14.010Z,55.99
2018-09-19T19:52:47.585Z,56.17
2018-09-19T19:55:23.065Z,56.29
2018-09-19T19:57:58.461Z,56.52
2018-09-19T20:00:35.926Z,56.74
2018-09-19T20:03:13.103Z,57.05
2018-09-19T20:05:46.337Z,57.26
2018-09-19T20:08:19.799Z,57.63
2018-09-19T20:10:55.835Z,57.91
2018-09-19T20:13:29.932Z,58.31
2018-09-19T20:16:05.453Z,58.60
2018-09-19T20:18:39.899Z,58.95
2018-09-19T20:21:16.429Z,58.99
2018-09-19T20:23:49.685Z,60.13
2018-09-19T20:26:22.357Z,60.11
2018-09-19T20:28:56.779Z,61.54
2018-09-19T20:31:33.733Z,62.34
2018-09-19T20:34:07.399Z,62.19
2018-09-19T20:36:40.179Z,62.29
2018-09-19T20:39:15.841Z,62.58
2018-09-19T20:41:49.560Z,63.04
2018-09-19T20:44:22.556Z,63.72
2018-09-19T20:46:56.138Z,63.58
2018-09-19T20:49:30.200Z,63.55
2018-09-19T20:52:03.690Z,64.12
2018-09-19T20:54:38.957Z,64.52
2018-09-19T20:57:12.593Z,65.07
2018-09-19T20:59:47.003Z,65.07
2018-09-19T21:02:22.626Z,65.57
2018-09-19T21:04:56.523Z,66.67
2018-09-19T21:07:29.042Z,66.66
2018-09-19T21:10:04.651Z,66.50
2018-09-19T21:12:38.493Z,66.18
2018-09-19T21:15:14.292Z,65.96
2018-09-19T21:17:48.152Z,66.07
2018-09-19T21:20:21.002Z,66.39
2018-09-19T21:22:55.161Z,66.37
2018-09-19T21:25:29.853Z,66.39
2018-09-19T21:28:03.875Z,66.30
2018-09-19T21:30:39.331Z,66.46
2018-09-19T21:33:12.921Z,66.41
2018-09-19T21:35:47.289Z,66.51
2018-09-19T21:38:22.012Z,66.74
2018-09-19T21:40:55.028Z,67.01
2018-09-19T21:43:43.788Z,66.91
2018-09-19T21:46:21.983Z,66.74
2018-09-19T21:48:55.944Z,67.13
2018-09-19T21:51:28.660Z,66.91
2018-09-19T21:54:04.281Z,66.58
2018-09-19T21:56:37.232Z,66.26
2018-09-19T21:59:09.779Z,65.92
2018-09-19T22:01:43.162Z,65.74
2018-09-19T22:04:15.608Z,65.56
2018-09-19T22:06:53.843Z,65.84
2018-09-19T22:09:28.166Z,65.87
2018-09-19T22:12:00.786Z,66.17
2018-09-19T22:14:34.845Z,66.49
2018-09-19T22:17:08.469Z,66.87
2018-09-19T22:19:42.815Z,67.20
2018-09-19T22:22:17.295Z,67.70
2018-09-19T22:24:49.803Z,67.85
2018-09-19T22:27:27.082Z,67.68
2018-09-19T22:29:59.644Z,68.09
2018-09-19T22:32:33.441Z,68.41
2018-09-19T22:35:08.860Z,68.44
2018-09-19T22:37:42.480Z,68.66
2018-09-19T22:40:15.581Z,69.41
2018-09-19T22:42:50.412Z,69.33
2018-09-19T22:45:23.878Z,69.44
2018-09-19T22:47:56.732Z,69.41
2018-09-19T22:50:29.781Z,69.50
2018-09-19T22:53:02.941Z,69.82
2018-09-19T22:55:37.047Z,70.87
2018-09-19T22:58:10.880Z,71.11
2018-09-19T23:00:47.763Z,71.03
2018-09-19T23:03:20.934Z,70.83
2018-09-19T23:05:54.308Z,70.61
2018-09-19T23:08:29.656Z,70.97
2018-09-19T23:11:02.857Z,71.11
2018-09-19T23:13:36.008Z,71.58
2018-09-19T23:16:08.536Z,73.19
2018-09-19T23:18:41.156Z,73.31
2018-09-19T23:21:14.173Z,72.66
2018-09-19T23:23:46.700Z,72.59
2018-09-19T23:26:19.341Z,72.86
2018-09-19T23:28:53.246Z,73.50
2018-09-19T23:31:25.913Z,73.53
2018-09-19T23:33:58.426Z,73.91
2018-09-19T23:36:31.240Z,73.55
2018-09-19T23:39:07.091Z,73.86
2018-09-19T23:41:39.813Z,74.27
2018-09-19T23:44:12.842Z,74.56
2018-09-19T23:46:45.482Z,74.26
2018-09-19T23:49:19.297Z,74.41
2018-09-19T23:51:54.733Z,74.90
2018-09-19T23:54:29.648Z,75.11
2018-09-19T23:57:02.612Z,75.70
2018-09-19T23:59:37.127Z,75.37
